sensor_id;sensor_type;location;lat;lon;timestamp;temperature;humidity
33109;HTU21D;19481;51.118;6.940;2024-02-28T00:01:11;1.64;74.89
33109;HTU21D;19481;51.118;6.940;2024-02-28T00:06:15;1.54;74.77
33109;HTU21D;19481;51.118;6.940;2024-02-28T00:11:17;1.53;74.89
33109;HTU21D;19481;51.118;6.940;2024-02-28T00:16:19;1.48;75.12
33109;HTU21D;19481;51.118;6.940;2024-02-28T00:21:22;1.40;74.96
33109;HTU21D;19481;51.118;6.940;2024-02-28T00:26:23;1.32;74.91
33109;HTU21D;19481;51.118;6.940;2024-02-28T00:31:25;1.38;75.03
33109;HTU21D;19481;51.118;6.940;2024-02-28T00:36:28;1.35;74.78
33109;HTU21D;19481;51.118;6.940;2024-02-28T00:41:29;1.35;75.06
33109;HTU21D;19481;51.118;6.940;2024-02-28T00:46:31;1.52;75.10
33109;HTU21D;19481;51.118;6.940;2024-02-28T00:51:34;1.57;75.12
33109;HTU21D;19481;51.118;6.940;2024-02-28T00:56:38;1.82;75.45
33109;HTU21D;19481;51.118;6.940;2024-02-28T01:01:39;1.97;75.38
33109;HTU21D;19481;51.118;6.940;2024-02-28T01:06:42;2.14;75.89
33109;HTU21D;19481;51.118;6.940;2024-02-28T01:11:44;2.11;76.91
33109;HTU21D;19481;51.118;6.940;2024-02-28T01:16:46;2.11;76.57
33109;HTU21D;19481;51.118;6.940;2024-02-28T01:21:48;2.20;76.95
33109;HTU21D;19481;51.118;6.940;2024-02-28T01:26:50;2.15;76.83
33109;HTU21D;19481;51.118;6.940;2024-02-28T01:31:52;2.10;76.68
33109;HTU21D;19481;51.118;6.940;2024-02-28T01:36:55;2.06;76.42
33109;HTU21D;19481;51.118;6.940;2024-02-28T01:41:56;2.15;76.26
33109;HTU21D;19481;51.118;6.940;2024-02-28T01:46:58;2.11;76.10
33109;HTU21D;19481;51.118;6.940;2024-02-28T01:52:02;2.11;76.10
33109;HTU21D;19481;51.118;6.940;2024-02-28T01:57:05;2.22;76.08
33109;HTU21D;19481;51.118;6.940;2024-02-28T02:02:06;2.32;76.01
33109;HTU21D;19481;51.118;6.940;2024-02-28T02:07:10;2.30;75.73
33109;HTU21D;19481;51.118;6.940;2024-02-28T02:12:12;2.35;76.12
33109;HTU21D;19481;51.118;6.940;2024-02-28T02:17:13;2.43;76.15
33109;HTU21D;19481;51.118;6.940;2024-02-28T02:22:16;2.49;76.12
33109;HTU21D;19481;51.118;6.940;2024-02-28T02:27:20;2.54;75.95
33109;HTU21D;19481;51.118;6.940;2024-02-28T02:32:22;2.61;76.18
33109;HTU21D;19481;51.118;6.940;2024-02-28T02:37:24;2.66;76.34
33109;HTU21D;19481;51.118;6.940;2024-02-28T02:42:26;2.75;76.14
33109;HTU21D;19481;51.118;6.940;2024-02-28T02:47:28;2.83;76.05
33109;HTU21D;19481;51.118;6.940;2024-02-28T02:52:31;2.83;76.54
33109;HTU21D;19481;51.118;6.940;2024-02-28T02:57:35;2.95;76.36
33109;HTU21D;19481;51.118;6.940;2024-02-28T03:02:37;3.09;76.23
33109;HTU21D;19481;51.118;6.940;2024-02-28T03:07:40;3.08;75.83
33109;HTU21D;19481;51.118;6.940;2024-02-28T03:12:43;3.18;75.53
33109;HTU21D;19481;51.118;6.940;2024-02-28T03:17:44;3.25;75.34
33109;HTU21D;19481;51.118;6.940;2024-02-28T03:22:46;3.30;75.03
33109;HTU21D;19481;51.118;6.940;2024-02-28T03:27:49;3.28;75.60
33109;HTU21D;19481;51.118;6.940;2024-02-28T03:32:50;3.29;76.11
33109;HTU21D;19481;51.118;6.940;2024-02-28T03:37:52;3.32;75.74
33109;HTU21D;19481;51.118;6.940;2024-02-28T03:42:55;3.44;75.22
33109;HTU21D;19481;51.118;6.940;2024-02-28T03:47:56;3.56;75.09
33109;HTU21D;19481;51.118;6.940;2024-02-28T03:52:58;3.58;75.16
33109;HTU21D;19481;51.118;6.940;2024-02-28T03:58:01;3.67;74.67
33109;HTU21D;19481;51.118;6.940;2024-02-28T04:03:04;3.71;74.65
33109;HTU21D;19481;51.118;6.940;2024-02-28T04:08:06;3.69;74.64
33109;HTU21D;19481;51.118;6.940;2024-02-28T04:13:09;3.68;74.92
33109;HTU21D;19481;51.118;6.940;2024-02-28T04:18:10;3.76;74.99
33109;HTU21D;19481;51.118;6.940;2024-02-28T04:23:12;3.75;75.32
33109;HTU21D;19481;51.118;6.940;2024-02-28T04:28:15;3.82;75.04
33109;HTU21D;19481;51.118;6.940;2024-02-28T04:33:17;3.87;75.27
33109;HTU21D;19481;51.118;6.940;2024-02-28T04:38:18;3.93;74.92
33109;HTU21D;19481;51.118;6.940;2024-02-28T04:43:21;4.04;74.66
33109;HTU21D;19481;51.118;6.940;2024-02-28T04:48:23;4.10;74.45
33109;HTU21D;19481;51.118;6.940;2024-02-28T04:53:24;4.09;75.23
33109;HTU21D;19481;51.118;6.940;2024-02-28T04:58:27;4.09;75.06
33109;HTU21D;19481;51.118;6.940;2024-02-28T05:03:29;4.18;74.61
33109;HTU21D;19481;51.118;6.940;2024-02-28T05:08:30;4.14;74.60
33109;HTU21D;19481;51.118;6.940;2024-02-28T05:13:35;4.16;74.54
33109;HTU21D;19481;51.118;6.940;2024-02-28T05:18:36;4.28;74.46
33109;HTU21D;19481;51.118;6.940;2024-02-28T05:23:38;4.31;74.61
33109;HTU21D;19481;51.118;6.940;2024-02-28T05:28:41;4.30;74.30
33109;HTU21D;19481;51.118;6.940;2024-02-28T05:33:42;4.35;74.43
33109;HTU21D;19481;51.118;6.940;2024-02-28T05:38:44;4.24;74.89
33109;HTU21D;19481;51.118;6.940;2024-02-28T05:43:47;4.27;74.53
33109;HTU21D;19481;51.118;6.940;2024-02-28T05:48:49;4.27;74.64
33109;HTU21D;19481;51.118;6.940;2024-02-28T05:53:51;4.27;75.02
33109;HTU21D;19481;51.118;6.940;2024-02-28T05:58:54;4.23;75.19
33109;HTU21D;19481;51.118;6.940;2024-02-28T06:03:55;4.26;76.33
33109;HTU21D;19481;51.118;6.940;2024-02-28T06:08:57;4.28;75.57
33109;HTU21D;19481;51.118;6.940;2024-02-28T06:14:00;4.28;74.83
33109;HTU21D;19481;51.118;6.940;2024-02-28T06:19:02;4.29;75.41
33109;HTU21D;19481;51.118;6.940;2024-02-28T06:24:04;4.27;75.36
33109;HTU21D;19481;51.118;6.940;2024-02-28T06:29:08;4.20;75.77
33109;HTU21D;19481;51.118;6.940;2024-02-28T06:34:09;4.17;75.10
33109;HTU21D;19481;51.118;6.940;2024-02-28T06:39:11;4.14;75.49
33109;HTU21D;19481;51.118;6.940;2024-02-28T06:44:14;4.04;75.08
33109;HTU21D;19481;51.118;6.940;2024-02-28T06:49:16;3.88;76.53
33109;HTU21D;19481;51.118;6.940;2024-02-28T06:54:18;3.89;76.10
33109;HTU21D;19481;51.118;6.940;2024-02-28T06:59:22;3.98;75.36
33109;HTU21D;19481;51.118;6.940;2024-02-28T07:04:24;4.03;75.02
33109;HTU21D;19481;51.118;6.940;2024-02-28T07:09:26;4.02;74.97
33109;HTU21D;19481;51.118;6.940;2024-02-28T07:14:32;4.15;74.57
33109;HTU21D;19481;51.118;6.940;2024-02-28T07:19:34;4.16;74.88
33109;HTU21D;19481;51.118;6.940;2024-02-28T07:24:36;4.13;74.24
33109;HTU21D;19481;51.118;6.940;2024-02-28T07:29:39;4.13;74.15
33109;HTU21D;19481;51.118;6.940;2024-02-28T07:34:41;4.17;74.16
33109;HTU21D;19481;51.118;6.940;2024-02-28T07:39:42;4.28;73.73
33109;HTU21D;19481;51.118;6.940;2024-02-28T07:44:45;4.33;73.54
33109;HTU21D;19481;51.118;6.940;2024-02-28T07:49:47;4.47;73.22
33109;HTU21D;19481;51.118;6.940;2024-02-28T07:54:48;4.48;73.21
33109;HTU21D;19481;51.118;6.940;2024-02-28T07:59:51;4.54;73.03
33109;HTU21D;19481;51.118;6.940;2024-02-28T08:04:53;4.52;72.87
33109;HTU21D;19481;51.118;6.940;2024-02-28T08:09:54;4.48;73.86
33109;HTU21D;19481;51.118;6.940;2024-02-28T08:14:57;4.53;73.96
33109;HTU21D;19481;51.118;6.940;2024-02-28T08:19:59;4.71;73.80
33109;HTU21D;19481;51.118;6.940;2024-02-28T08:25:01;4.62;73.64
33109;HTU21D;19481;51.118;6.940;2024-02-28T08:30:05;4.61;73.30
33109;HTU21D;19481;51.118;6.940;2024-02-28T08:35:08;4.86;73.09
33109;HTU21D;19481;51.118;6.940;2024-02-28T08:40:11;4.80;72.41
33109;HTU21D;19481;51.118;6.940;2024-02-28T08:45:14;5.07;72.08
33109;HTU21D;19481;51.118;6.940;2024-02-28T08:50:16;5.19;71.96
33109;HTU21D;19481;51.118;6.940;2024-02-28T08:55:17;5.17;71.99
33109;HTU21D;19481;51.118;6.940;2024-02-28T09:00:21;5.36;71.20
33109;HTU21D;19481;51.118;6.940;2024-02-28T09:05:23;5.34;71.34
33109;HTU21D;19481;51.118;6.940;2024-02-28T09:10:25;5.37;71.20
33109;HTU21D;19481;51.118;6.940;2024-02-28T09:15:28;5.41;71.06
33109;HTU21D;19481;51.118;6.940;2024-02-28T09:20:29;5.53;70.40
33109;HTU21D;19481;51.118;6.940;2024-02-28T09:25:31;5.51;70.08
33109;HTU21D;19481;51.118;6.940;2024-02-28T09:30:34;5.68;69.74
33109;HTU21D;19481;51.118;6.940;2024-02-28T09:35:36;5.54;69.58
33109;HTU21D;19481;51.118;6.940;2024-02-28T09:40:37;5.75;69.26
33109;HTU21D;19481;51.118;6.940;2024-02-28T09:45:41;5.79;69.15
33109;HTU21D;19481;51.118;6.940;2024-02-28T09:50:42;6.11;69.23
33109;HTU21D;19481;51.118;6.940;2024-02-28T09:55:44;6.28;67.94
33109;HTU21D;19481;51.118;6.940;2024-02-28T10:00:48;6.07;68.31
33109;HTU21D;19481;51.118;6.940;2024-02-28T10:05:50;6.36;68.01
33109;HTU21D;19481;51.118;6.940;2024-02-28T10:10:51;6.56;67.21
33109;HTU21D;19481;51.118;6.940;2024-02-28T10:15:56;6.53;66.82
33109;HTU21D;19481;51.118;6.940;2024-02-28T10:20:58;6.61;66.70
33109;HTU21D;19481;51.118;6.940;2024-02-28T10:26:00;7.01;66.03
33109;HTU21D;19481;51.118;6.940;2024-02-28T10:31:04;7.18;65.44
33109;HTU21D;19481;51.118;6.940;2024-02-28T10:36:06;7.57;65.10
33109;HTU21D;19481;51.118;6.940;2024-02-28T10:41:08;7.48;64.65
33109;HTU21D;19481;51.118;6.940;2024-02-28T10:46:13;7.71;64.26
33109;HTU21D;19481;51.118;6.940;2024-02-28T10:51:16;7.83;64.17
33109;HTU21D;19481;51.118;6.940;2024-02-28T10:56:20;7.92;64.49
33109;HTU21D;19481;51.118;6.940;2024-02-28T11:01:23;8.33;63.38
33109;HTU21D;19481;51.118;6.940;2024-02-28T11:06:25;8.56;62.68
33109;HTU21D;19481;51.118;6.940;2024-02-28T11:11:31;9.30;62.17
33109;HTU21D;19481;51.118;6.940;2024-02-28T11:16:34;9.62;60.56
33109;HTU21D;19481;51.118;6.940;2024-02-28T11:21:37;9.83;60.62
33109;HTU21D;19481;51.118;6.940;2024-02-28T11:26:39;10.03;59.96
33109;HTU21D;19481;51.118;6.940;2024-02-28T11:31:42;10.98;58.60
33109;HTU21D;19481;51.118;6.940;2024-02-28T11:36:47;11.00;59.38
33109;HTU21D;19481;51.118;6.940;2024-02-28T11:41:48;11.47;58.19
33109;HTU21D;19481;51.118;6.940;2024-02-28T11:46:51;11.81;57.78
33109;HTU21D;19481;51.118;6.940;2024-02-28T11:51:53;11.74;58.52
33109;HTU21D;19481;51.118;6.940;2024-02-28T11:56:55;11.61;57.48
33109;HTU21D;19481;51.118;6.940;2024-02-28T12:01:58;12.03;49.02
33109;HTU21D;19481;51.118;6.940;2024-02-28T12:06:59;11.25;58.41
33109;HTU21D;19481;51.118;6.940;2024-02-28T12:12:01;10.87;60.10
33109;HTU21D;19481;51.118;6.940;2024-02-28T12:17:05;10.58;61.57
33109;HTU21D;19481;51.118;6.940;2024-02-28T12:22:07;11.20;57.43
33109;HTU21D;19481;51.118;6.940;2024-02-28T12:27:08;10.95;60.18
33109;HTU21D;19481;51.118;6.940;2024-02-28T12:32:11;11.13;59.85
33109;HTU21D;19481;51.118;6.940;2024-02-28T12:37:13;10.79;60.59
33109;HTU21D;19481;51.118;6.940;2024-02-28T12:42:15;11.24;59.41
33109;HTU21D;19481;51.118;6.940;2024-02-28T12:47:18;11.14;59.97
33109;HTU21D;19481;51.118;6.940;2024-02-28T12:52:20;10.57;60.47
33109;HTU21D;19481;51.118;6.940;2024-02-28T12:57:21;10.59;60.83
33109;HTU21D;19481;51.118;6.940;2024-02-28T13:02:24;10.73;60.18
33109;HTU21D;19481;51.118;6.940;2024-02-28T13:07:26;10.63;60.09
33109;HTU21D;19481;51.118;6.940;2024-02-28T13:12:30;10.46;58.22
33109;HTU21D;19481;51.118;6.940;2024-02-28T13:17:34;10.65;59.89
33109;HTU21D;19481;51.118;6.940;2024-02-28T13:22:35;10.80;58.87
33109;HTU21D;19481;51.118;6.940;2024-02-28T13:27:37;10.89;52.56
33109;HTU21D;19481;51.118;6.940;2024-02-28T13:32:40;10.63;58.61
33109;HTU21D;19481;51.118;6.940;2024-02-28T13:37:41;10.75;58.17
33109;HTU21D;19481;51.118;6.940;2024-02-28T13:42:43;10.89;58.07
33109;HTU21D;19481;51.118;6.940;2024-02-28T13:47:46;10.88;58.71
33109;HTU21D;19481;51.118;6.940;2024-02-28T13:52:48;10.88;58.38
33109;HTU21D;19481;51.118;6.940;2024-02-28T13:57:49;11.05;58.19
33109;HTU21D;19481;51.118;6.940;2024-02-28T14:02:53;11.15;58.24
33109;HTU21D;19481;51.118;6.940;2024-02-28T14:07:55;10.70;59.13
33109;HTU21D;19481;51.118;6.940;2024-02-28T14:12:57;10.82;58.42
33109;HTU21D;19481;51.118;6.940;2024-02-28T14:18:00;10.82;57.15
33109;HTU21D;19481;51.118;6.940;2024-02-28T14:23:01;11.23;55.42
33109;HTU21D;19481;51.118;6.940;2024-02-28T14:28:04;11.34;56.55
33109;HTU21D;19481;51.118;6.940;2024-02-28T14:33:07;11.25;55.94
33109;HTU21D;19481;51.118;6.940;2024-02-28T14:38:09;11.05;55.44
33109;HTU21D;19481;51.118;6.940;2024-02-28T14:43:11;11.36;56.75
33109;HTU21D;19481;51.118;6.940;2024-02-28T14:48:14;11.41;56.77
33109;HTU21D;19481;51.118;6.940;2024-02-28T14:53:15;11.37;55.90
33109;HTU21D;19481;51.118;6.940;2024-02-28T14:58:19;11.19;56.92
33109;HTU21D;19481;51.118;6.940;2024-02-28T15:03:21;11.07;56.52
33109;HTU21D;19481;51.118;6.940;2024-02-28T15:08:23;11.03;57.06
33109;HTU21D;19481;51.118;6.940;2024-02-28T15:13:25;11.03;57.19
33109;HTU21D;19481;51.118;6.940;2024-02-28T15:18:28;10.98;54.20
33109;HTU21D;19481;51.118;6.940;2024-02-28T15:23:29;10.99;57.00
33109;HTU21D;19481;51.118;6.940;2024-02-28T15:28:31;10.92;57.33
33109;HTU21D;19481;51.118;6.940;2024-02-28T15:33:34;10.77;56.66
33109;HTU21D;19481;51.118;6.940;2024-02-28T15:38:36;10.87;57.01
33109;HTU21D;19481;51.118;6.940;2024-02-28T15:43:38;10.87;56.96
33109;HTU21D;19481;51.118;6.940;2024-02-28T15:48:41;10.80;55.51
33109;HTU21D;19481;51.118;6.940;2024-02-28T15:53:42;10.87;53.47
33109;HTU21D;19481;51.118;6.940;2024-02-28T15:58:44;10.75;56.88
33109;HTU21D;19481;51.118;6.940;2024-02-28T16:03:47;10.77;57.28
33109;HTU21D;19481;51.118;6.940;2024-02-28T16:08:49;10.72;56.94
33109;HTU21D;19481;51.118;6.940;2024-02-28T16:13:50;10.60;56.79
33109;HTU21D;19481;51.118;6.940;2024-02-28T16:18:53;10.49;57.23
33109;HTU21D;19481;51.118;6.940;2024-02-28T16:23:55;10.48;57.25
33109;HTU21D;19481;51.118;6.940;2024-02-28T16:28:56;10.37;57.19
33109;HTU21D;19481;51.118;6.940;2024-02-28T16:34:00;10.34;57.12
33109;HTU21D;19481;51.118;6.940;2024-02-28T16:39:01;10.30;56.90
33109;HTU21D;19481;51.118;6.940;2024-02-28T16:44:03;10.23;56.90
33109;HTU21D;19481;51.118;6.940;2024-02-28T16:49:06;10.16;57.33
33109;HTU21D;19481;51.118;6.940;2024-02-28T16:54:07;10.07;57.41
33109;HTU21D;19481;51.118;6.940;2024-02-28T16:59:09;10.01;57.43
33109;HTU21D;19481;51.118;6.940;2024-02-28T17:04:13;9.91;57.32
33109;HTU21D;19481;51.118;6.940;2024-02-28T17:09:15;9.79;57.77
33109;HTU21D;19481;51.118;6.940;2024-02-28T17:14:16;9.66;57.95
33109;HTU21D;19481;51.118;6.940;2024-02-28T17:19:20;9.54;54.74
33109;HTU21D;19481;51.118;6.940;2024-02-28T17:24:21;9.37;58.29
33109;HTU21D;19481;51.118;6.940;2024-02-28T17:29:23;9.22;58.38
33109;HTU21D;19481;51.118;6.940;2024-02-28T17:34:26;9.10;59.05
33109;HTU21D;19481;51.118;6.940;2024-02-28T17:39:28;8.96;58.96
33109;HTU21D;19481;51.118;6.940;2024-02-28T17:44:29;8.83;59.40
33109;HTU21D;19481;51.118;6.940;2024-02-28T17:49:32;8.68;59.89
33109;HTU21D;19481;51.118;6.940;2024-02-28T17:54:36;8.58;59.86
33109;HTU21D;19481;51.118;6.940;2024-02-28T17:59:38;8.49;58.58
33109;HTU21D;19481;51.118;6.940;2024-02-28T18:04:41;8.38;60.24
33109;HTU21D;19481;51.118;6.940;2024-02-28T18:09:43;8.24;60.46
33109;HTU21D;19481;51.118;6.940;2024-02-28T18:14:45;8.18;60.61
33109;HTU21D;19481;51.118;6.940;2024-02-28T18:19:48;8.11;60.71
33109;HTU21D;19481;51.118;6.940;2024-02-28T18:24:49;8.06;60.73
33109;HTU21D;19481;51.118;6.940;2024-02-28T18:29:51;8.02;60.88
33109;HTU21D;19481;51.118;6.940;2024-02-28T18:34:54;7.99;60.94
33109;HTU21D;19481;51.118;6.940;2024-02-28T18:39:59;7.98;60.99
33109;HTU21D;19481;51.118;6.940;2024-02-28T18:45:00;7.93;61.17
33109;HTU21D;19481;51.118;6.940;2024-02-28T18:50:07;7.91;61.28
33109;HTU21D;19481;51.118;6.940;2024-02-28T18:55:09;7.87;61.38
33109;HTU21D;19481;51.118;6.940;2024-02-28T19:00:11;7.85;61.48
33109;HTU21D;19481;51.118;6.940;2024-02-28T19:05:15;7.79;61.54
33109;HTU21D;19481;51.118;6.940;2024-02-28T19:10:17;7.77;61.69
33109;HTU21D;19481;51.118;6.940;2024-02-28T19:15:18;7.73;61.83
33109;HTU21D;19481;51.118;6.940;2024-02-28T19:20:21;7.73;61.76
33109;HTU21D;19481;51.118;6.940;2024-02-28T19:25:23;7.71;61.86
33109;HTU21D;19481;51.118;6.940;2024-02-28T19:30:25;7.69;61.96
33109;HTU21D;19481;51.118;6.940;2024-02-28T19:35:27;7.71;61.87
33109;HTU21D;19481;51.118;6.940;2024-02-28T19:40:29;7.73;61.70
33109;HTU21D;19481;51.118;6.940;2024-02-28T19:45:34;7.74;61.75
33109;HTU21D;19481;51.118;6.940;2024-02-28T19:50:37;7.74;61.67
33109;HTU21D;19481;51.118;6.940;2024-02-28T19:55:39;7.70;61.73
33109;HTU21D;19481;51.118;6.940;2024-02-28T20:00:41;7.71;61.76
33109;HTU21D;19481;51.118;6.940;2024-02-28T20:05:44;7.69;61.84
33109;HTU21D;19481;51.118;6.940;2024-02-28T20:10:47;7.68;61.96
33109;HTU21D;19481;51.118;6.940;2024-02-28T20:15:49;7.65;62.02
33109;HTU21D;19481;51.118;6.940;2024-02-28T20:20:52;7.65;61.92
33109;HTU21D;19481;51.118;6.940;2024-02-28T20:25:54;7.62;61.98
33109;HTU21D;19481;51.118;6.940;2024-02-28T20:30:55;7.61;61.96
33109;HTU21D;19481;51.118;6.940;2024-02-28T20:35:58;7.56;61.99
33109;HTU21D;19481;51.118;6.940;2024-02-28T20:41:00;7.50;62.08
33109;HTU21D;19481;51.118;6.940;2024-02-28T20:46:01;7.41;62.28
33109;HTU21D;19481;51.118;6.940;2024-02-28T20:51:04;7.33;62.38
33109;HTU21D;19481;51.118;6.940;2024-02-28T20:56:06;7.30;62.37
33109;HTU21D;19481;51.118;6.940;2024-02-28T21:01:08;7.20;62.54
33109;HTU21D;19481;51.118;6.940;2024-02-28T21:06:11;7.11;62.69
33109;HTU21D;19481;51.118;6.940;2024-02-28T21:11:14;7.03;62.89
33109;HTU21D;19481;51.118;6.940;2024-02-28T21:16:15;6.98;62.92
33109;HTU21D;19481;51.118;6.940;2024-02-28T21:21:19;6.89;63.08
33109;HTU21D;19481;51.118;6.940;2024-02-28T21:26:20;6.84;63.29
33109;HTU21D;19481;51.118;6.940;2024-02-28T21:31:22;6.74;63.31
33109;HTU21D;19481;51.118;6.940;2024-02-28T21:36:25;6.65;63.40
33109;HTU21D;19481;51.118;6.940;2024-02-28T21:41:27;6.61;63.63
33109;HTU21D;19481;51.118;6.940;2024-02-28T21:46:28;6.59;63.62
33109;HTU21D;19481;51.118;6.940;2024-02-28T21:51:31;6.50;63.70
33109;HTU21D;19481;51.118;6.940;2024-02-28T21:56:33;6.53;63.63
33109;HTU21D;19481;51.118;6.940;2024-02-28T22:01:34;6.45;63.89
33109;HTU21D;19481;51.118;6.940;2024-02-28T22:06:37;6.45;63.67
33109;HTU21D;19481;51.118;6.940;2024-02-28T22:11:39;6.50;63.50
33109;HTU21D;19481;51.118;6.940;2024-02-28T22:16:41;6.49;63.82
33109;HTU21D;19481;51.118;6.940;2024-02-28T22:21:44;6.46;63.15
33109;HTU21D;19481;51.118;6.940;2024-02-28T22:26:45;6.41;63.26
33109;HTU21D;19481;51.118;6.940;2024-02-28T22:31:47;6.40;63.21
33109;HTU21D;19481;51.118;6.940;2024-02-28T22:36:50;6.38;63.18
33109;HTU21D;19481;51.118;6.940;2024-02-28T22:41:52;6.36;63.11
33109;HTU21D;19481;51.118;6.940;2024-02-28T22:46:53;6.36;63.41
33109;HTU21D;19481;51.118;6.940;2024-02-28T22:51:56;6.30;62.89
33109;HTU21D;19481;51.118;6.940;2024-02-28T22:56:58;6.27;63.15
33109;HTU21D;19481;51.118;6.940;2024-02-28T23:01:59;6.23;63.10
33109;HTU21D;19481;51.118;6.940;2024-02-28T23:07:02;6.24;62.94
33109;HTU21D;19481;51.118;6.940;2024-02-28T23:12:04;6.15;63.27
33109;HTU21D;19481;51.118;6.940;2024-02-28T23:17:07;6.15;63.23
33109;HTU21D;19481;51.118;6.940;2024-02-28T23:22:11;6.14;62.99
33109;HTU21D;19481;51.118;6.940;2024-02-28T23:27:13;6.10;63.05
33109;HTU21D;19481;51.118;6.940;2024-02-28T23:32:15;6.11;62.86
33109;HTU21D;19481;51.118;6.940;2024-02-28T23:37:18;6.05;63.00
33109;HTU21D;19481;51.118;6.940;2024-02-28T23:42:19;6.05;63.00
33109;HTU21D;19481;51.118;6.940;2024-02-28T23:47:21;5.95;63.01
33109;HTU21D;19481;51.118;6.940;2024-02-28T23:52:24;5.91;63.11
33109;HTU21D;19481;51.118;6.940;2024-02-28T23:57:26;5.82;63.27
